createdAt,value
2018-04-01T00:00:14.939Z,18.13
2018-04-01T00:03:17.458Z,17.60
2018-04-01T00:06:20.768Z,18.50
2018-04-01T00:09:23.270Z,17.30
2018-04-01T00:12:25.798Z,18.07
2018-04-01T00:15:28.299Z,17.87
2018-04-01T00:18:30.827Z,18.97
2018-04-01T00:21:33.330Z,17.83
2018-04-01T00:24:35.875Z,17.50
2018-04-01T00:27:38.383Z,18.07
2018-04-01T00:30:40.931Z,15.93
2018-04-01T00:33:43.434Z,16.30
2018-04-01T00:36:45.967Z,15.23
2018-04-01T00:39:49.242Z,15.40
2018-04-01T00:42:51.770Z,14.57
2018-04-01T00:45:54.284Z,14.40
2018-04-01T00:48:57.575Z,14.67
2018-04-01T00:52:00.866Z,14.70
2018-04-01T00:55:03.378Z,14.23
2018-04-01T00:58:05.914Z,15.37
2018-04-01T01:01:08.418Z,15.93
2018-04-01T01:04:11.707Z,14.80
2018-04-01T01:07:14.979Z,16.10
2018-04-01T01:10:17.502Z,15.43
2018-04-01T01:13:20.031Z,15.03
2018-04-01T01:16:22.540Z,14.90
2018-04-01T01:19:25.835Z,15.33
2018-04-01T01:22:29.102Z,16.00
2018-04-01T01:25:31.622Z,14.87
2018-04-01T01:28:34.121Z,16.33
2018-04-01T01:31:36.644Z,15.50
2018-04-01T01:34:39.152Z,15.60
2018-04-01T01:37:41.679Z,14.10
2018-04-01T01:40:44.195Z,14.43
2018-04-01T01:43:47.470Z,13.23
2018-04-01T01:46:49.994Z,14.57
2018-04-01T01:49:52.507Z,14.33
2018-04-01T01:52:55.032Z,13.20
2018-04-01T01:55:57.543Z,13.77
2018-04-01T01:59:00.066Z,13.43
2018-04-01T02:02:02.587Z,13.50
2018-04-01T02:05:05.114Z,13.50
2018-04-01T02:08:07.642Z,13.60
2018-04-01T02:11:10.166Z,14.57
2018-04-01T02:14:12.690Z,14.23
2018-04-01T02:17:15.190Z,14.73
2018-04-01T02:20:17.727Z,14.63
2018-04-01T02:23:20.995Z,14.53
2018-04-01T02:26:23.523Z,15.00
2018-04-01T02:29:26.055Z,16.43
2018-04-01T02:32:28.583Z,15.50
2018-04-01T02:35:31.119Z,16.23
2018-04-01T02:38:33.631Z,16.53
2018-04-01T02:41:36.175Z,15.77
2018-04-01T02:44:39.451Z,16.00
2018-04-01T02:47:41.978Z,16.07
2018-04-01T02:50:44.482Z,15.63
2018-04-01T02:53:47.016Z,14.10
2018-04-01T02:56:50.294Z,13.63
2018-04-01T02:59:52.819Z,14.53
2018-04-01T03:02:55.323Z,15.70
2018-04-01T03:05:57.868Z,14.07
2018-04-01T03:09:00.378Z,14.87
2018-04-01T03:12:02.909Z,14.33
2018-04-01T03:15:06.197Z,14.67
2018-04-01T03:18:09.490Z,14.93
2018-04-01T03:21:12.007Z,14.13
2018-04-01T03:24:14.531Z,13.50
2018-04-01T03:27:17.039Z,14.13
2018-04-01T03:30:19.554Z,13.77
2018-04-01T03:33:22.062Z,14.13
2018-04-01T03:36:24.586Z,14.53
2018-04-01T03:39:27.111Z,13.97
2018-04-01T03:42:29.628Z,13.57
2018-04-01T03:45:32.159Z,15.07
2018-04-01T03:48:34.667Z,14.37
2018-04-01T03:51:37.972Z,15.90
2018-04-01T03:54:41.238Z,14.23
2018-04-01T03:57:43.759Z,15.07
2018-04-01T04:00:46.267Z,15.80
2018-04-01T04:03:48.786Z,15.73
2018-04-01T04:06:52.054Z,14.83
2018-04-01T04:09:54.575Z,16.33
2018-04-01T04:12:57.846Z,16.37
2018-04-01T04:16:00.370Z,15.20
2018-04-01T04:19:02.894Z,16.63
2018-04-01T04:22:05.402Z,16.03
2018-04-01T04:25:08.694Z,15.00
2018-04-01T04:28:11.967Z,15.90
2018-04-01T04:31:14.497Z,15.47
2018-04-01T04:34:17.007Z,14.77
2018-04-01T04:37:19.543Z,14.47
2018-04-01T04:40:22.050Z,15.37
2018-04-01T04:43:24.578Z,14.47
2018-04-01T04:46:27.870Z,14.97
2018-04-01T04:49:31.138Z,14.80
2018-04-01T04:52:33.662Z,15.70
2018-04-01T04:55:36.168Z,13.77
2018-04-01T04:58:38.689Z,14.83
2018-04-01T05:01:41.192Z,14.97
2018-04-01T05:04:43.715Z,14.93
2018-04-01T05:07:46.215Z,14.60
2018-04-01T05:10:48.738Z,14.67
2018-04-01T05:13:51.262Z,15.50
2018-04-01T05:16:53.787Z,15.63
2018-04-01T05:19:56.306Z,16.10
2018-04-01T05:22:58.810Z,15.17
2018-04-01T05:26:01.335Z,14.57
2018-04-01T05:29:03.835Z,15.23
2018-04-01T05:32:06.358Z,14.60
2018-04-01T05:35:09.649Z,14.30
2018-04-01T05:38:12.918Z,14.03
2018-04-01T05:41:15.438Z,14.03
2018-04-01T05:44:17.958Z,14.30
2018-04-01T05:47:20.467Z,14.70
2018-04-01T05:50:22.995Z,14.10
2018-04-01T05:53:25.518Z,13.27
2018-04-01T05:56:28.027Z,13.53
2018-04-01T05:59:30.554Z,15.43
2018-04-01T06:02:33.059Z,12.87
2018-04-01T06:05:35.582Z,13.53
2018-04-01T06:08:38.090Z,13.53
2018-04-01T06:11:40.616Z,13.40
2018-04-01T06:14:43.123Z,13.27
2018-04-01T06:17:45.642Z,13.73
2018-04-01T06:20:48.151Z,11.57
2018-04-01T06:23:50.674Z,12.60
2018-04-01T06:26:53.188Z,11.97
2018-04-01T06:29:56.474Z,12.63
2018-04-01T06:32:58.983Z,12.03
2018-04-01T06:36:02.879Z,12.00
2018-04-01T06:39:09.928Z,10.97
2018-04-01T06:42:19.842Z,12.03
2018-04-01T06:45:22.624Z,11.83
2018-04-01T06:48:29.927Z,11.83
2018-04-01T06:51:36.591Z,11.60
2018-04-01T06:54:42.220Z,11.50
2018-04-01T07:00:57.866Z,10.37
2018-04-01T07:11:28.198Z,9.70
2018-04-01T07:14:41.095Z,9.33
2018-04-01T07:21:28.569Z,9.87
2018-04-01T07:38:29.054Z,7.57
2018-04-01T07:52:30.942Z,8.67
2018-04-01T07:59:19.121Z,8.40
2018-04-01T08:06:06.783Z,7.90
2018-04-01T08:09:09.295Z,7.67
2018-04-01T08:12:11.814Z,7.97
2018-04-01T08:15:14.339Z,7.90
2018-04-01T08:18:16.882Z,8.43
2018-04-01T08:21:19.403Z,9.57
2018-04-01T08:24:27.680Z,8.73
2018-04-01T08:30:41.645Z,7.60
2018-04-01T08:33:46.373Z,7.80
2018-04-01T08:36:48.998Z,7.57
2018-04-01T08:40:24.747Z,8.50
2018-04-01T08:43:28.634Z,7.80
2018-04-01T08:46:31.456Z,7.50
2018-04-01T08:49:34.843Z,7.57
2018-04-01T08:52:38.488Z,7.40
2018-04-01T08:55:41.943Z,7.47
2018-04-01T08:58:54.659Z,6.47
2018-04-01T09:01:58.127Z,6.57
2018-04-01T09:05:07.105Z,6.37
2018-04-01T09:08:14.917Z,6.10
2018-04-01T09:11:20.379Z,6.30
2018-04-01T09:14:22.967Z,6.77
2018-04-01T09:17:26.879Z,5.70
2018-04-01T09:20:29.434Z,5.73
2018-04-01T09:23:31.964Z,5.37
2018-04-01T09:26:34.469Z,5.20
2018-04-01T09:29:37.762Z,4.73
2018-04-01T09:32:41.034Z,5.63
2018-04-01T09:35:43.561Z,5.37
2018-04-01T09:38:52.791Z,4.70
2018-04-01T09:41:55.271Z,4.90
2018-04-01T09:45:04.000Z,5.13
2018-04-01T09:48:07.468Z,4.93
2018-04-01T09:51:10.034Z,4.57
2018-04-01T09:54:15.697Z,4.73
2018-04-01T09:57:18.218Z,5.03
2018-04-01T10:00:25.610Z,5.27
2018-04-01T10:03:28.942Z,6.10
2018-04-01T10:06:32.267Z,6.07
2018-04-01T10:09:35.574Z,6.10
2018-04-01T10:12:39.662Z,5.13
2018-04-01T10:15:42.998Z,5.57
2018-04-01T10:18:46.307Z,5.83
2018-04-01T10:21:49.638Z,5.63
2018-04-01T10:24:52.938Z,6.43
2018-04-01T10:27:56.252Z,5.70
2018-04-01T10:30:59.578Z,4.77
2018-04-01T10:34:02.903Z,5.47
2018-04-01T10:37:06.203Z,4.83
2018-04-01T10:40:09.536Z,4.93
2018-04-01T10:43:12.839Z,4.17
2018-04-01T10:46:16.172Z,5.00
2018-04-01T10:49:19.461Z,4.90
2018-04-01T10:52:22.787Z,4.20
2018-04-01T10:55:25.323Z,4.50
2018-04-01T10:58:28.607Z,4.30
2018-04-01T11:01:31.897Z,3.83
2018-04-01T11:04:34.402Z,4.17
2018-04-01T11:07:36.911Z,4.10
2018-04-01T11:10:39.462Z,7.10
2018-04-01T11:13:41.971Z,21.00
2018-04-01T11:16:44.528Z,6.47
2018-04-01T11:19:47.043Z,3.53
2018-04-01T11:22:49.557Z,4.23
2018-04-01T11:25:52.846Z,4.13
2018-04-01T11:28:55.376Z,18.37
2018-04-01T11:31:57.898Z,5.43
2018-04-01T11:35:00.418Z,4.40
2018-04-01T11:38:02.922Z,3.60
2018-04-01T11:41:05.447Z,4.00
2018-04-01T11:44:08.761Z,4.50
2018-04-01T11:47:11.287Z,5.70
2018-04-01T11:50:13.818Z,4.70
2018-04-01T11:53:16.322Z,4.10
2018-04-01T11:56:18.859Z,3.50
2018-04-01T11:59:21.363Z,4.50
2018-04-01T12:02:23.878Z,4.30
2018-04-01T12:05:26.387Z,4.47
2018-04-01T12:08:29.678Z,3.67
2018-04-01T12:11:32.951Z,5.07
2018-04-01T12:14:35.471Z,3.63
2018-04-01T12:17:38.007Z,3.70
2018-04-01T12:20:40.510Z,3.93
2018-04-01T12:23:43.814Z,3.53
2018-04-01T12:26:46.318Z,3.80
2018-04-01T12:29:48.837Z,3.80
2018-04-01T12:32:51.348Z,3.90
2018-04-01T12:35:53.879Z,4.23
2018-04-01T12:38:56.391Z,4.77
2018-04-01T12:41:59.694Z,3.97
2018-04-01T12:45:03.001Z,3.83
2018-04-01T12:48:05.502Z,4.33
2018-04-01T12:51:08.083Z,3.67
2018-04-01T12:54:10.558Z,4.03
2018-04-01T12:57:13.078Z,4.27
2018-04-01T13:00:15.592Z,4.43
2018-04-01T13:03:18.131Z,4.53
2018-04-01T13:06:20.644Z,4.23
2018-04-01T13:09:23.167Z,4.20
2018-04-01T13:12:25.707Z,4.93
2018-04-01T13:15:28.203Z,4.73
2018-04-01T13:18:30.722Z,4.80
2018-04-01T13:21:33.241Z,4.40
2018-04-01T13:24:35.768Z,4.40
2018-04-01T13:27:38.282Z,9.90
2018-04-01T13:30:41.574Z,6.23
2018-04-01T13:33:44.884Z,6.63
2018-04-01T13:36:47.402Z,6.03
2018-04-01T13:39:49.931Z,5.70
2018-04-01T13:42:52.445Z,6.67
2018-04-01T13:45:54.964Z,5.63
2018-04-01T13:48:58.242Z,5.77
2018-04-01T13:52:00.772Z,5.73
2018-04-01T13:55:03.283Z,5.40
2018-04-01T13:58:05.830Z,5.27
2018-04-01T14:01:08.341Z,6.70
2018-04-01T14:04:10.876Z,6.67
2018-04-01T14:07:13.404Z,5.87
2018-04-01T14:10:15.913Z,5.93
2018-04-01T14:13:19.215Z,5.47
2018-04-01T14:16:22.502Z,4.80
2018-04-01T14:19:25.822Z,4.93
2018-04-01T14:22:28.348Z,5.93
2018-04-01T14:25:30.867Z,5.30
2018-04-01T14:28:34.150Z,6.07
2018-04-01T14:31:36.694Z,5.87
2018-04-01T14:34:39.202Z,5.50
2018-04-01T14:37:41.727Z,4.60
2018-04-01T14:40:44.236Z,5.17
2018-04-01T14:43:46.766Z,4.57
2018-04-01T14:46:49.277Z,5.00
2018-04-01T14:49:51.815Z,4.90
2018-04-01T14:52:54.326Z,4.93
2018-04-01T14:55:56.850Z,5.10
2018-04-01T14:58:59.367Z,5.80
2018-04-01T15:02:01.898Z,5.10
2018-04-01T15:05:04.410Z,5.70
2018-04-01T15:08:06.930Z,5.53
2018-04-01T15:11:09.470Z,5.70
2018-04-01T15:14:11.989Z,5.57
2018-04-01T15:17:14.512Z,5.17
2018-04-01T15:20:17.782Z,5.27
2018-04-01T15:23:20.326Z,4.90
2018-04-01T15:26:22.830Z,4.90
2018-04-01T15:29:25.361Z,4.60
2018-04-01T15:32:27.857Z,7.27
2018-04-01T15:35:30.375Z,4.70
2018-04-01T15:38:32.881Z,6.07
2018-04-01T15:41:35.399Z,6.40
2018-04-01T15:44:37.918Z,4.40
2018-04-01T15:47:41.208Z,3.93
2018-04-01T15:50:44.484Z,4.43
2018-04-01T15:53:47.859Z,4.67
2018-04-01T15:56:50.374Z,4.90
2018-04-01T15:59:52.893Z,4.63
2018-04-01T16:02:55.422Z,5.33
2018-04-01T16:05:57.938Z,5.00
2018-04-01T16:09:00.476Z,4.77
2018-04-01T16:12:02.982Z,4.47
2018-04-01T16:15:06.274Z,4.70
2018-04-01T16:18:09.574Z,4.43
2018-04-01T16:21:12.074Z,5.70
2018-04-01T16:24:14.607Z,5.37
2018-04-01T16:27:17.121Z,5.20
2018-04-01T16:30:19.642Z,5.73
2018-04-01T16:33:22.392Z,5.27
2018-04-01T16:36:24.926Z,4.77
2018-04-01T16:39:27.515Z,5.13
2018-04-01T16:42:30.806Z,4.60
2018-04-01T16:45:33.310Z,4.20
2018-04-01T16:48:35.862Z,4.80
2018-04-01T16:51:38.365Z,4.87
2018-04-01T16:54:40.905Z,6.00
2018-04-01T16:57:43.411Z,4.57
2018-04-01T17:00:46.697Z,4.83
2018-04-01T17:03:50.000Z,5.27
2018-04-01T17:06:53.275Z,6.13
2018-04-01T17:09:55.798Z,4.97
2018-04-01T17:12:58.307Z,4.63
2018-04-01T17:16:01.015Z,5.63
2018-04-01T17:19:03.840Z,5.07
2018-04-01T17:22:06.411Z,5.23
2018-04-01T17:25:08.934Z,4.67
2018-04-01T17:28:11.463Z,6.13
2018-04-01T17:31:13.976Z,6.00
2018-04-01T17:34:16.494Z,5.17
2018-04-01T17:37:19.782Z,5.73
2018-04-01T17:40:22.306Z,6.47
2018-04-01T17:43:24.811Z,11.90
2018-04-01T17:46:27.337Z,8.93
2018-04-01T17:49:30.611Z,10.23
2018-04-01T17:52:33.137Z,9.60
2018-04-01T17:55:35.678Z,11.07
2018-04-01T17:58:38.178Z,10.80
2018-04-01T18:01:40.701Z,6.23
2018-04-01T18:04:43.224Z,8.10
2018-04-01T18:07:45.767Z,6.63
2018-04-01T18:10:48.279Z,6.70
2018-04-01T18:13:51.582Z,5.43
2018-04-01T18:16:54.091Z,5.43
2018-04-01T18:19:56.738Z,7.17
2018-04-01T18:22:59.277Z,5.43
2018-04-01T18:26:01.787Z,5.37
2018-04-01T18:29:05.120Z,9.27
2018-04-01T18:32:07.606Z,6.93
2018-04-01T18:35:10.148Z,16.63
2018-04-01T18:38:13.426Z,7.60
2018-04-01T18:41:16.713Z,6.77
2018-04-01T18:44:19.227Z,7.53
2018-04-01T18:47:21.750Z,6.10
2018-04-01T18:50:24.267Z,6.50
2018-04-01T18:53:27.578Z,7.13
2018-04-01T18:56:30.091Z,7.47
2018-04-01T18:59:32.614Z,8.90
2018-04-01T19:02:35.903Z,7.70
2018-04-01T19:05:39.195Z,7.10
2018-04-01T19:08:42.507Z,6.27
2018-04-01T19:11:45.784Z,5.67
2018-04-01T19:14:48.306Z,5.47
2018-04-01T19:17:51.630Z,5.97
2018-04-01T19:20:54.943Z,5.80
2018-04-01T19:23:58.398Z,5.93
2018-04-01T19:27:01.722Z,5.53
2018-04-01T19:30:05.034Z,6.40
2018-04-01T19:33:08.351Z,5.40
2018-04-01T19:36:12.450Z,5.27
2018-04-01T19:39:15.754Z,5.50
2018-04-01T19:42:19.066Z,5.70
2018-04-01T19:45:23.131Z,6.43
2018-04-01T19:48:26.452Z,5.80
2018-04-01T19:51:29.759Z,5.50
2018-04-01T19:54:33.075Z,5.10
2018-04-01T19:57:37.164Z,6.17
2018-04-01T20:00:40.463Z,5.90
2018-04-01T20:03:43.781Z,5.77
2018-04-01T20:06:47.850Z,5.40
2018-04-01T20:09:51.202Z,5.53
2018-04-01T20:12:55.249Z,5.63
2018-04-01T20:15:58.558Z,5.67
2018-04-01T20:19:01.871Z,5.33
2018-04-01T20:22:05.166Z,6.10
2018-04-01T20:25:08.483Z,6.60
2018-04-01T20:28:12.555Z,5.67
2018-04-01T20:31:15.862Z,6.07
2018-04-01T20:34:19.179Z,5.97
2018-04-01T20:37:22.499Z,6.70
2018-04-01T20:40:26.558Z,6.77
2018-04-01T20:43:29.876Z,7.60
2018-04-01T20:46:33.197Z,9.03
2018-04-01T20:49:37.274Z,6.27
2018-04-01T20:52:40.583Z,5.37
2018-04-01T20:55:43.884Z,5.53
2018-04-01T20:58:47.206Z,5.80
2018-04-01T21:01:51.286Z,6.27
2018-04-01T21:04:54.602Z,5.97
2018-04-01T21:07:57.895Z,5.07
2018-04-01T21:11:01.203Z,5.60
2018-04-01T21:14:05.278Z,5.17
2018-04-01T21:17:08.585Z,6.90
2018-04-01T21:20:11.902Z,6.37
2018-04-01T21:23:15.971Z,6.60
2018-04-01T21:26:19.279Z,6.73
2018-04-01T21:29:22.599Z,7.13
2018-04-01T21:32:25.915Z,5.73
2018-04-01T21:35:29.993Z,5.17
2018-04-01T21:38:33.287Z,5.57
2018-04-01T21:41:36.598Z,5.80
2018-04-01T21:44:39.898Z,5.67
2018-04-01T21:47:43.219Z,5.63
2018-04-01T21:50:47.283Z,5.77
2018-04-01T21:53:50.604Z,5.50
2018-04-01T21:56:53.899Z,5.33
2018-04-01T21:59:57.215Z,5.47
2018-04-01T22:03:01.294Z,5.73
2018-04-01T22:06:04.586Z,5.33
2018-04-01T22:09:07.910Z,5.33
2018-04-01T22:12:11.227Z,5.17
2018-04-01T22:15:15.306Z,5.03
2018-04-01T22:18:18.623Z,4.77
2018-04-01T22:21:21.955Z,5.20
2018-04-01T22:24:25.248Z,5.17
2018-04-01T22:27:28.563Z,5.10
2018-04-01T22:30:31.875Z,5.70
2018-04-01T22:33:35.181Z,5.30
2018-04-01T22:36:38.501Z,5.73
2018-04-01T22:39:42.562Z,6.40
2018-04-01T22:42:45.879Z,5.90
2018-04-01T22:45:49.182Z,6.07
2018-04-01T22:48:53.269Z,6.27
2018-04-01T22:51:56.563Z,5.73
2018-04-01T22:54:59.884Z,5.77
2018-04-01T22:58:03.966Z,6.03
2018-04-01T23:01:07.263Z,7.10
2018-04-01T23:04:10.577Z,5.13
2018-04-01T23:07:13.875Z,6.70
2018-04-01T23:10:17.199Z,6.40
2018-04-01T23:13:20.663Z,6.33
2018-04-01T23:16:23.981Z,6.60
2018-04-01T23:19:27.300Z,6.53
2018-04-01T23:22:43.472Z,6.70
2018-04-01T23:25:48.654Z,7.00
2018-04-01T23:28:52.791Z,7.23
2018-04-01T23:31:56.164Z,7.57
2018-04-01T23:35:02.358Z,6.77
2018-04-01T23:38:05.720Z,6.93
2018-04-01T23:41:10.789Z,7.50
2018-04-01T23:44:15.924Z,7.00
2018-04-01T23:47:19.330Z,7.17
2018-04-01T23:50:23.742Z,7.97
2018-04-01T23:53:29.711Z,7.10
2018-04-01T23:56:33.970Z,7.23
2018-04-01T23:59:37.629Z,7.07
